< Cyclone 196807 1968 Season Cyclone 196810 >
Cyclone 196808 (DOREEN)
General InformationTrack Information on Google Maps || ResourceGoogle EarthGE AnimationAtom FeedGeoJSON
Detalied Best Track (Time Zone = UTC)
Year Month Day Hour Lat. Long. Pressure (hPa) Wind (kt) Class Image Chart
1968 1 19 07 -6.9 97.0 1003 0 0 -- --
1968 1 19 10 -7.1 97.0 1001 0 0 -- --
1968 1 19 16 -7.6 97.0 997 0 0 -- --
1968 1 19 19 -7.9 97.0 996 0 0 -- --
1968 1 19 22 -8.1 97.0 995 0 0 -- --
1968 1 20 01 -8.4 97.0 994 0 0 -- --
1968 1 20 04 -8.6 97.0 992 0 0 -- --
1968 1 20 07 -8.9 97.0 990 0 0 -- --
1968 1 20 10 -9.2 97.0 988 0 0 -- --
1968 1 20 16 -9.9 97.0 983 0 0 -- --
1968 1 20 19 -10.3 97.0 980 0 0 -- --
1968 1 20 22 -10.7 97.0 977 0 0 -- --
1968 1 21 01 -11.1 97.0 975 0 0 -- --
1968 1 21 04 -11.5 97.0 972 0 0 -- --
1968 1 21 07 -11.9 97.0 970 0 0 -- --
1968 1 21 10 -12.2 96.8 970 0 0 -- --
1968 1 21 16 -12.9 96.6 971 0 0 -- --
1968 1 21 19 -13.3 96.5 973 0 0 -- --
1968 1 21 22 -13.7 96.4 975 0 0 -- --
1968 1 22 01 -14.1 96.3 976 0 0 -- --
1968 1 22 04 -14.5 96.2 978 0 0 -- --
1968 1 22 07 -14.9 96.0 980 0 0 -- --
1968 1 22 10 -15.2 95.7 982 0 0 -- --
1968 1 22 16 -15.7 95.2 983 0 0 -- --
1968 1 22 19 -15.9 95.0 984 0 0 -- --
1968 1 22 22 -16.2 94.7 985 0 0 -- --
1968 1 23 01 -16.4 94.5 987 0 0 -- --
1968 1 23 04 -16.7 94.2 989 0 0 -- --
1968 1 23 07 -16.9 94.0 990 0 0 -- --
1968 1 23 10 -17.2 93.7 992 0 0 -- --
1968 1 23 16 -17.9 93.1 996 0 0 -- --
1968 1 23 22 -18.6 92.3 1000 0 0 -- --
1968 1 24 01 -18.9 92.0 1002 0 0 -- --
< Cyclone 196807 1968 Season Cyclone 196810 >

Help